sensor_id;sensor_type;location;lat;lon;timestamp;P1;durP1;ratioP1;P2;durP2;ratioP2
74291;SDS011;62687;55.738;37.516;2023-08-07T00:00:42;11.73;;;4.25;;
74291;SDS011;62687;55.738;37.516;2023-08-07T00:03:25;12.77;;;3.67;;
74291;SDS011;62687;55.738;37.516;2023-08-07T00:06:10;8.43;;;3.33;;
74291;SDS011;62687;55.738;37.516;2023-08-07T00:08:54;9.98;;;3.92;;
74291;SDS011;62687;55.738;37.516;2023-08-07T00:11:38;11.60;;;4.15;;
74291;SDS011;62687;55.738;37.516;2023-08-07T00:14:21;8.63;;;3.72;;
74291;SDS011;62687;55.738;37.516;2023-08-07T00:17:05;8.52;;;3.45;;
74291;SDS011;62687;55.738;37.516;2023-08-07T00:19:49;10.32;;;4.10;;
74291;SDS011;62687;55.738;37.516;2023-08-07T00:22:33;9.63;;;4.00;;
74291;SDS011;62687;55.738;37.516;2023-08-07T00:25:17;8.70;;;4.03;;
74291;SDS011;62687;55.738;37.516;2023-08-07T00:28:01;7.07;;;3.88;;
74291;SDS011;62687;55.738;37.516;2023-08-07T00:30:45;10.13;;;4.03;;
74291;SDS011;62687;55.738;37.516;2023-08-07T00:33:29;8.35;;;3.60;;
74291;SDS011;62687;55.738;37.516;2023-08-07T00:36:13;8.50;;;3.80;;
74291;SDS011;62687;55.738;37.516;2023-08-07T00:38:57;9.25;;;4.68;;
74291;SDS011;62687;55.738;37.516;2023-08-07T00:41:41;6.45;;;3.75;;
74291;SDS011;62687;55.738;37.516;2023-08-07T00:44:25;10.52;;;3.95;;
74291;SDS011;62687;55.738;37.516;2023-08-07T00:47:09;12.68;;;3.88;;
74291;SDS011;62687;55.738;37.516;2023-08-07T00:49:54;6.03;;;3.85;;
74291;SDS011;62687;55.738;37.516;2023-08-07T00:52:39;8.27;;;3.80;;
74291;SDS011;62687;55.738;37.516;2023-08-07T00:55:23;9.20;;;3.88;;
74291;SDS011;62687;55.738;37.516;2023-08-07T00:58:07;8.10;;;3.80;;
74291;SDS011;62687;55.738;37.516;2023-08-07T01:00:50;6.40;;;3.65;;
74291;SDS011;62687;55.738;37.516;2023-08-07T01:03:34;9.90;;;3.63;;
74291;SDS011;62687;55.738;37.516;2023-08-07T01:06:19;7.30;;;3.63;;
74291;SDS011;62687;55.738;37.516;2023-08-07T01:09:03;10.10;;;4.00;;
74291;SDS011;62687;55.738;37.516;2023-08-07T01:14:33;6.93;;;4.10;;
74291;SDS011;62687;55.738;37.516;2023-08-07T01:17:22;8.77;;;3.70;;
74291;SDS011;62687;55.738;37.516;2023-08-07T01:20:07;12.13;;;3.95;;
74291;SDS011;62687;55.738;37.516;2023-08-07T01:22:51;5.85;;;3.72;;
74291;SDS011;62687;55.738;37.516;2023-08-07T01:25:35;8.05;;;3.65;;
74291;SDS011;62687;55.738;37.516;2023-08-07T01:28:44;8.43;;;3.85;;
74291;SDS011;62687;55.738;37.516;2023-08-07T01:31:26;6.80;;;3.95;;
74291;SDS011;62687;55.738;37.516;2023-08-07T01:34:13;6.85;;;3.78;;
74291;SDS011;62687;55.738;37.516;2023-08-07T01:36:59;6.70;;;3.95;;
74291;SDS011;62687;55.738;37.516;2023-08-07T01:39:44;14.68;;;4.20;;
74291;SDS011;62687;55.738;37.516;2023-08-07T01:42:29;9.20;;;4.10;;
74291;SDS011;62687;55.738;37.516;2023-08-07T01:45:14;8.82;;;3.80;;
74291;SDS011;62687;55.738;37.516;2023-08-07T01:47:58;6.90;;;3.92;;
74291;SDS011;62687;55.738;37.516;2023-08-07T01:50:43;9.23;;;3.63;;
74291;SDS011;62687;55.738;37.516;2023-08-07T01:53:27;10.20;;;4.40;;
74291;SDS011;62687;55.738;37.516;2023-08-07T01:56:11;12.50;;;3.85;;
74291;SDS011;62687;55.738;37.516;2023-08-07T01:58:55;9.30;;;3.95;;
74291;SDS011;62687;55.738;37.516;2023-08-07T02:01:39;10.13;;;4.60;;
74291;SDS011;62687;55.738;37.516;2023-08-07T02:04:23;13.45;;;4.40;;
74291;SDS011;62687;55.738;37.516;2023-08-07T02:07:06;7.53;;;4.10;;
74291;SDS011;62687;55.738;37.516;2023-08-07T02:09:50;7.07;;;3.80;;
74291;SDS011;62687;55.738;37.516;2023-08-07T02:12:34;7.88;;;3.53;;
74291;SDS011;62687;55.738;37.516;2023-08-07T02:15:18;9.20;;;3.97;;
74291;SDS011;62687;55.738;37.516;2023-08-07T02:18:02;6.60;;;3.83;;
74291;SDS011;62687;55.738;37.516;2023-08-07T02:20:46;9.43;;;3.72;;
74291;SDS011;62687;55.738;37.516;2023-08-07T02:23:30;7.22;;;3.67;;
74291;SDS011;62687;55.738;37.516;2023-08-07T02:26:14;7.88;;;3.78;;
74291;SDS011;62687;55.738;37.516;2023-08-07T02:28:58;7.22;;;3.80;;
74291;SDS011;62687;55.738;37.516;2023-08-07T02:31:42;6.80;;;3.90;;
74291;SDS011;62687;55.738;37.516;2023-08-07T02:34:26;7.95;;;4.03;;
74291;SDS011;62687;55.738;37.516;2023-08-07T02:37:10;7.07;;;3.88;;
74291;SDS011;62687;55.738;37.516;2023-08-07T02:39:54;7.22;;;4.00;;
74291;SDS011;62687;55.738;37.516;2023-08-07T02:42:38;7.38;;;4.18;;
74291;SDS011;62687;55.738;37.516;2023-08-07T02:45:22;7.95;;;4.15;;
74291;SDS011;62687;55.738;37.516;2023-08-07T02:48:06;8.00;;;3.90;;
74291;SDS011;62687;55.738;37.516;2023-08-07T02:50:50;7.13;;;3.75;;
74291;SDS011;62687;55.738;37.516;2023-08-07T02:53:35;7.03;;;4.10;;
74291;SDS011;62687;55.738;37.516;2023-08-07T02:56:19;7.55;;;3.90;;
74291;SDS011;62687;55.738;37.516;2023-08-07T02:59:03;9.70;;;3.65;;
74291;SDS011;62687;55.738;37.516;2023-08-07T03:01:47;13.40;;;5.30;;
74291;SDS011;62687;55.738;37.516;2023-08-07T03:04:31;12.95;;;3.88;;
74291;SDS011;62687;55.738;37.516;2023-08-07T03:07:15;5.97;;;3.88;;
74291;SDS011;62687;55.738;37.516;2023-08-07T03:09:59;8.82;;;3.80;;
74291;SDS011;62687;55.738;37.516;2023-08-07T03:12:43;7.00;;;3.88;;
74291;SDS011;62687;55.738;37.516;2023-08-07T03:15:27;7.30;;;4.22;;
74291;SDS011;62687;55.738;37.516;2023-08-07T03:18:10;6.40;;;3.75;;
74291;SDS011;62687;55.738;37.516;2023-08-07T03:20:58;7.45;;;3.75;;
74291;SDS011;62687;55.738;37.516;2023-08-07T03:23:42;7.82;;;3.63;;
74291;SDS011;62687;55.738;37.516;2023-08-07T03:26:26;7.82;;;4.10;;
74291;SDS011;62687;55.738;37.516;2023-08-07T03:29:09;11.25;;;3.58;;
74291;SDS011;62687;55.738;37.516;2023-08-07T03:31:53;7.38;;;4.00;;
74291;SDS011;62687;55.738;37.516;2023-08-07T03:34:37;7.93;;;3.95;;
74291;SDS011;62687;55.738;37.516;2023-08-07T03:37:21;6.50;;;3.63;;
74291;SDS011;62687;55.738;37.516;2023-08-07T03:40:05;10.27;;;3.70;;
74291;SDS011;62687;55.738;37.516;2023-08-07T03:42:50;12.98;;;3.70;;
74291;SDS011;62687;55.738;37.516;2023-08-07T03:45:34;7.40;;;3.55;;
74291;SDS011;62687;55.738;37.516;2023-08-07T03:48:18;6.82;;;3.58;;
74291;SDS011;62687;55.738;37.516;2023-08-07T03:51:02;7.03;;;3.45;;
74291;SDS011;62687;55.738;37.516;2023-08-07T03:53:47;6.55;;;3.25;;
74291;SDS011;62687;55.738;37.516;2023-08-07T03:56:31;6.18;;;3.47;;
74291;SDS011;62687;55.738;37.516;2023-08-07T03:59:20;6.00;;;3.78;;
74291;SDS011;62687;55.738;37.516;2023-08-07T04:02:04;7.55;;;3.38;;
74291;SDS011;62687;55.738;37.516;2023-08-07T04:04:48;8.65;;;3.42;;
74291;SDS011;62687;55.738;37.516;2023-08-07T04:07:32;6.53;;;3.65;;
74291;SDS011;62687;55.738;37.516;2023-08-07T04:10:16;10.57;;;3.33;;
74291;SDS011;62687;55.738;37.516;2023-08-07T04:13:00;9.93;;;3.60;;
74291;SDS011;62687;55.738;37.516;2023-08-07T04:15:44;9.35;;;3.60;;
74291;SDS011;62687;55.738;37.516;2023-08-07T04:18:28;10.68;;;3.78;;
74291;SDS011;62687;55.738;37.516;2023-08-07T04:21:12;9.90;;;3.50;;
74291;SDS011;62687;55.738;37.516;2023-08-07T04:23:56;5.80;;;3.10;;
74291;SDS011;62687;55.738;37.516;2023-08-07T04:26:40;8.55;;;3.67;;
74291;SDS011;62687;55.738;37.516;2023-08-07T04:29:24;8.73;;;3.40;;
74291;SDS011;62687;55.738;37.516;2023-08-07T04:32:08;6.50;;;3.67;;
74291;SDS011;62687;55.738;37.516;2023-08-07T04:34:53;9.07;;;3.30;;
74291;SDS011;62687;55.738;37.516;2023-08-07T04:37:37;8.50;;;3.70;;
74291;SDS011;62687;55.738;37.516;2023-08-07T04:40:21;10.23;;;3.25;;
74291;SDS011;62687;55.738;37.516;2023-08-07T04:43:05;10.23;;;3.50;;
74291;SDS011;62687;55.738;37.516;2023-08-07T04:45:49;8.88;;;3.78;;
74291;SDS011;62687;55.738;37.516;2023-08-07T04:48:33;8.90;;;3.45;;
74291;SDS011;62687;55.738;37.516;2023-08-07T04:51:17;7.60;;;3.45;;
74291;SDS011;62687;55.738;37.516;2023-08-07T04:54:01;13.52;;;4.38;;
74291;SDS011;62687;55.738;37.516;2023-08-07T04:56:45;10.38;;;3.97;;
74291;SDS011;62687;55.738;37.516;2023-08-07T04:59:29;9.70;;;3.10;;
74291;SDS011;62687;55.738;37.516;2023-08-07T05:02:14;6.43;;;3.35;;
74291;SDS011;62687;55.738;37.516;2023-08-07T05:04:58;9.82;;;3.40;;
74291;SDS011;62687;55.738;37.516;2023-08-07T05:07:42;8.88;;;3.95;;
74291;SDS011;62687;55.738;37.516;2023-08-07T05:10:26;10.75;;;3.60;;
74291;SDS011;62687;55.738;37.516;2023-08-07T05:13:10;11.07;;;4.00;;
74291;SDS011;62687;55.738;37.516;2023-08-07T05:15:54;7.97;;;3.00;;
74291;SDS011;62687;55.738;37.516;2023-08-07T05:18:38;7.00;;;3.75;;
74291;SDS011;62687;55.738;37.516;2023-08-07T05:21:22;10.25;;;3.65;;
74291;SDS011;62687;55.738;37.516;2023-08-07T05:24:06;15.82;;;3.25;;
74291;SDS011;62687;55.738;37.516;2023-08-07T05:26:50;10.07;;;3.78;;
74291;SDS011;62687;55.738;37.516;2023-08-07T05:29:34;9.15;;;3.50;;
74291;SDS011;62687;55.738;37.516;2023-08-07T05:32:18;13.75;;;4.53;;
74291;SDS011;62687;55.738;37.516;2023-08-07T05:35:03;11.32;;;3.00;;
74291;SDS011;62687;55.738;37.516;2023-08-07T05:37:47;9.68;;;2.67;;
74291;SDS011;62687;55.738;37.516;2023-08-07T05:40:31;11.10;;;2.83;;
74291;SDS011;62687;55.738;37.516;2023-08-07T05:43:16;10.73;;;2.80;;
74291;SDS011;62687;55.738;37.516;2023-08-07T05:46:00;13.90;;;3.08;;
74291;SDS011;62687;55.738;37.516;2023-08-07T05:48:44;6.55;;;3.00;;
74291;SDS011;62687;55.738;37.516;2023-08-07T05:51:28;12.65;;;2.80;;
74291;SDS011;62687;55.738;37.516;2023-08-07T05:54:12;9.02;;;3.28;;
74291;SDS011;62687;55.738;37.516;2023-08-07T05:56:56;8.82;;;2.50;;
74291;SDS011;62687;55.738;37.516;2023-08-07T05:59:40;8.98;;;2.85;;
74291;SDS011;62687;55.738;37.516;2023-08-07T06:02:24;5.10;;;2.60;;
74291;SDS011;62687;55.738;37.516;2023-08-07T06:05:08;12.10;;;3.80;;
74291;SDS011;62687;55.738;37.516;2023-08-07T06:07:52;5.47;;;2.58;;
74291;SDS011;62687;55.738;37.516;2023-08-07T06:10:37;12.65;;;2.50;;
74291;SDS011;62687;55.738;37.516;2023-08-07T06:13:21;15.18;;;2.40;;
74291;SDS011;62687;55.738;37.516;2023-08-07T06:16:04;11.93;;;2.40;;
74291;SDS011;62687;55.738;37.516;2023-08-07T06:18:49;6.90;;;2.53;;
74291;SDS011;62687;55.738;37.516;2023-08-07T06:21:33;7.60;;;2.50;;
74291;SDS011;62687;55.738;37.516;2023-08-07T06:24:17;10.07;;;2.50;;
74291;SDS011;62687;55.738;37.516;2023-08-07T06:27:02;13.52;;;2.30;;
74291;SDS011;62687;55.738;37.516;2023-08-07T06:29:46;9.25;;;2.20;;
74291;SDS011;62687;55.738;37.516;2023-08-07T06:32:30;8.93;;;2.60;;
74291;SDS011;62687;55.738;37.516;2023-08-07T06:35:14;7.82;;;2.67;;
74291;SDS011;62687;55.738;37.516;2023-08-07T06:37:58;11.25;;;2.80;;
74291;SDS011;62687;55.738;37.516;2023-08-07T06:40:42;6.72;;;2.40;;
74291;SDS011;62687;55.738;37.516;2023-08-07T06:43:26;11.55;;;3.30;;
74291;SDS011;62687;55.738;37.516;2023-08-07T06:46:10;10.13;;;2.92;;
74291;SDS011;62687;55.738;37.516;2023-08-07T06:48:54;12.18;;;3.00;;
74291;SDS011;62687;55.738;37.516;2023-08-07T06:51:39;15.32;;;3.80;;
74291;SDS011;62687;55.738;37.516;2023-08-07T06:54:23;7.72;;;2.22;;
74291;SDS011;62687;55.738;37.516;2023-08-07T06:57:07;14.85;;;3.25;;
74291;SDS011;62687;55.738;37.516;2023-08-07T06:59:50;4.55;;;2.22;;
74291;SDS011;62687;55.738;37.516;2023-08-07T07:02:34;6.18;;;2.10;;
74291;SDS011;62687;55.738;37.516;2023-08-07T07:05:18;9.30;;;2.50;;
74291;SDS011;62687;55.738;37.516;2023-08-07T07:08:02;12.77;;;2.70;;
74291;SDS011;62687;55.738;37.516;2023-08-07T07:10:47;6.55;;;2.47;;
74291;SDS011;62687;55.738;37.516;2023-08-07T07:13:31;8.00;;;2.10;;
74291;SDS011;62687;55.738;37.516;2023-08-07T07:16:15;14.15;;;2.58;;
74291;SDS011;62687;55.738;37.516;2023-08-07T07:18:59;11.75;;;2.20;;
74291;SDS011;62687;55.738;37.516;2023-08-07T07:21:43;8.88;;;2.17;;
74291;SDS011;62687;55.738;37.516;2023-08-07T07:27:11;8.77;;;2.70;;
74291;SDS011;62687;55.738;37.516;2023-08-07T07:29:55;7.43;;;2.13;;
74291;SDS011;62687;55.738;37.516;2023-08-07T07:32:39;10.70;;;2.03;;
74291;SDS011;62687;55.738;37.516;2023-08-07T07:35:23;6.72;;;2.03;;
74291;SDS011;62687;55.738;37.516;2023-08-07T07:38:07;12.82;;;2.13;;
74291;SDS011;62687;55.738;37.516;2023-08-07T07:40:51;9.43;;;1.92;;
74291;SDS011;62687;55.738;37.516;2023-08-07T07:43:39;13.20;;;1.92;;
74291;SDS011;62687;55.738;37.516;2023-08-07T07:46:23;10.30;;;2.30;;
74291;SDS011;62687;55.738;37.516;2023-08-07T07:51:52;12.20;;;2.42;;
74291;SDS011;62687;55.738;37.516;2023-08-07T07:54:36;11.88;;;2.53;;
74291;SDS011;62687;55.738;37.516;2023-08-07T07:57:20;7.97;;;1.80;;
74291;SDS011;62687;55.738;37.516;2023-08-07T08:00:04;13.52;;;1.92;;
74291;SDS011;62687;55.738;37.516;2023-08-07T08:02:53;11.98;;;1.88;;
74291;SDS011;62687;55.738;37.516;2023-08-07T08:05:38;12.68;;;1.88;;
74291;SDS011;62687;55.738;37.516;2023-08-07T08:08:22;9.65;;;1.92;;
74291;SDS011;62687;55.738;37.516;2023-08-07T08:11:06;9.77;;;2.00;;
74291;SDS011;62687;55.738;37.516;2023-08-07T08:13:50;10.38;;;1.95;;
74291;SDS011;62687;55.738;37.516;2023-08-07T08:19:08;10.45;;;2.28;;
74291;SDS011;62687;55.738;37.516;2023-08-07T08:22:00;14.23;;;1.92;;
74291;SDS011;62687;55.738;37.516;2023-08-07T08:25:16;10.35;;;2.10;;
74291;SDS011;62687;55.738;37.516;2023-08-07T08:28:30;11.95;;;1.70;;
74291;SDS011;62687;55.738;37.516;2023-08-07T08:31:16;13.35;;;1.92;;
74291;SDS011;62687;55.738;37.516;2023-08-07T08:34:06;9.65;;;2.00;;
74291;SDS011;62687;55.738;37.516;2023-08-07T08:36:51;8.05;;;1.48;;
74291;SDS011;62687;55.738;37.516;2023-08-07T08:39:59;9.98;;;1.70;;
74291;SDS011;62687;55.738;37.516;2023-08-07T08:43:00;14.60;;;1.92;;
74291;SDS011;62687;55.738;37.516;2023-08-07T08:45:55;16.20;;;2.30;;
74291;SDS011;62687;55.738;37.516;2023-08-07T08:51:58;7.57;;;2.10;;
74291;SDS011;62687;55.738;37.516;2023-08-07T08:54:48;15.73;;;2.85;;
74291;SDS011;62687;55.738;37.516;2023-08-07T08:57:34;10.52;;;1.80;;
74291;SDS011;62687;55.738;37.516;2023-08-07T09:00:41;16.08;;;2.83;;
74291;SDS011;62687;55.738;37.516;2023-08-07T09:03:46;13.85;;;2.38;;
74291;SDS011;62687;55.738;37.516;2023-08-07T09:06:59;15.80;;;1.98;;
74291;SDS011;62687;55.738;37.516;2023-08-07T09:10:10;9.05;;;2.00;;
74291;SDS011;62687;55.738;37.516;2023-08-07T09:13:15;12.93;;;2.25;;
74291;SDS011;62687;55.738;37.516;2023-08-07T09:16:37;10.98;;;2.35;;
74291;SDS011;62687;55.738;37.516;2023-08-07T09:19:26;7.22;;;1.80;;
74291;SDS011;62687;55.738;37.516;2023-08-07T09:22:07;24.13;;;2.83;;
74291;SDS011;62687;55.738;37.516;2023-08-07T09:24:52;11.98;;;2.20;;
74291;SDS011;62687;55.738;37.516;2023-08-07T09:27:37;8.63;;;1.67;;
74291;SDS011;62687;55.738;37.516;2023-08-07T09:30:21;13.68;;;2.13;;
74291;SDS011;62687;55.738;37.516;2023-08-07T09:33:09;11.05;;;2.10;;
74291;SDS011;62687;55.738;37.516;2023-08-07T09:38:37;6.68;;;1.80;;
74291;SDS011;62687;55.738;37.516;2023-08-07T09:41:21;8.48;;;1.77;;
74291;SDS011;62687;55.738;37.516;2023-08-07T09:44:06;4.53;;;2.30;;
74291;SDS011;62687;55.738;37.516;2023-08-07T09:46:51;6.88;;;1.60;;
74291;SDS011;62687;55.738;37.516;2023-08-07T09:49:35;7.63;;;1.95;;
74291;SDS011;62687;55.738;37.516;2023-08-07T09:52:19;15.07;;;1.63;;
74291;SDS011;62687;55.738;37.516;2023-08-07T09:55:03;6.25;;;2.05;;
74291;SDS011;62687;55.738;37.516;2023-08-07T09:57:48;9.75;;;2.08;;
74291;SDS011;62687;55.738;37.516;2023-08-07T10:00:35;8.25;;;1.42;;
74291;SDS011;62687;55.738;37.516;2023-08-07T10:03:19;14.27;;;1.65;;
74291;SDS011;62687;55.738;37.516;2023-08-07T10:06:03;9.77;;;1.80;;
74291;SDS011;62687;55.738;37.516;2023-08-07T10:08:47;7.75;;;1.92;;
74291;SDS011;62687;55.738;37.516;2023-08-07T10:11:31;8.35;;;2.40;;
74291;SDS011;62687;55.738;37.516;2023-08-07T10:14:16;7.88;;;2.00;;
74291;SDS011;62687;55.738;37.516;2023-08-07T10:17:00;4.03;;;1.60;;
74291;SDS011;62687;55.738;37.516;2023-08-07T10:19:44;7.75;;;1.92;;
74291;SDS011;62687;55.738;37.516;2023-08-07T10:22:29;6.15;;;1.60;;
74291;SDS011;62687;55.738;37.516;2023-08-07T10:25:24;7.90;;;1.80;;
74291;SDS011;62687;55.738;37.516;2023-08-07T10:28:08;8.32;;;1.85;;
74291;SDS011;62687;55.738;37.516;2023-08-07T10:30:54;7.30;;;1.60;;
74291;SDS011;62687;55.738;37.516;2023-08-07T10:36:22;11.82;;;1.52;;
74291;SDS011;62687;55.738;37.516;2023-08-07T10:39:07;12.88;;;1.85;;
74291;SDS011;62687;55.738;37.516;2023-08-07T10:41:55;12.48;;;2.35;;
74291;SDS011;62687;55.738;37.516;2023-08-07T10:44:44;7.03;;;1.90;;
74291;SDS011;62687;55.738;37.516;2023-08-07T10:47:34;9.63;;;1.80;;
74291;SDS011;62687;55.738;37.516;2023-08-07T10:50:18;7.82;;;1.80;;
74291;SDS011;62687;55.738;37.516;2023-08-07T10:53:02;6.43;;;2.42;;
74291;SDS011;62687;55.738;37.516;2023-08-07T10:55:46;6.82;;;2.58;;
74291;SDS011;62687;55.738;37.516;2023-08-07T10:58:32;7.90;;;2.13;;
74291;SDS011;62687;55.738;37.516;2023-08-07T11:04:06;4.95;;;1.88;;
74291;SDS011;62687;55.738;37.516;2023-08-07T11:06:50;13.10;;;1.90;;
74291;SDS011;62687;55.738;37.516;2023-08-07T11:09:34;13.30;;;2.45;;
74291;SDS011;62687;55.738;37.516;2023-08-07T11:12:19;6.53;;;2.25;;
74291;SDS011;62687;55.738;37.516;2023-08-07T11:15:03;8.80;;;1.80;;
74291;SDS011;62687;55.738;37.516;2023-08-07T11:17:47;9.77;;;2.20;;
74291;SDS011;62687;55.738;37.516;2023-08-07T11:20:32;6.78;;;1.90;;
74291;SDS011;62687;55.738;37.516;2023-08-07T11:23:22;8.82;;;2.03;;
74291;SDS011;62687;55.738;37.516;2023-08-07T11:26:07;7.10;;;2.05;;
74291;SDS011;62687;55.738;37.516;2023-08-07T11:28:51;6.90;;;1.70;;
74291;SDS011;62687;55.738;37.516;2023-08-07T11:34:19;7.07;;;1.83;;
74291;SDS011;62687;55.738;37.516;2023-08-07T11:37:04;7.47;;;1.92;;
74291;SDS011;62687;55.738;37.516;2023-08-07T11:39:48;11.90;;;2.10;;
74291;SDS011;62687;55.738;37.516;2023-08-07T11:42:32;10.40;;;2.17;;
74291;SDS011;62687;55.738;37.516;2023-08-07T11:45:16;6.30;;;2.28;;
74291;SDS011;62687;55.738;37.516;2023-08-07T11:50:45;6.72;;;1.95;;
74291;SDS011;62687;55.738;37.516;2023-08-07T11:53:30;4.60;;;2.08;;
74291;SDS011;62687;55.738;37.516;2023-08-07T11:56:14;11.88;;;1.95;;
74291;SDS011;62687;55.738;37.516;2023-08-07T11:58:58;8.77;;;2.08;;
74291;SDS011;62687;55.738;37.516;2023-08-07T12:04:27;10.40;;;2.88;;
74291;SDS011;62687;55.738;37.516;2023-08-07T12:07:16;9.15;;;2.08;;
74291;SDS011;62687;55.738;37.516;2023-08-07T12:10:02;8.38;;;1.98;;
74291;SDS011;62687;55.738;37.516;2023-08-07T12:12:46;9.30;;;2.20;;
74291;SDS011;62687;55.738;37.516;2023-08-07T12:15:31;11.40;;;1.90;;
74291;SDS011;62687;55.738;37.516;2023-08-07T12:18:17;6.25;;;1.80;;
74291;SDS011;62687;55.738;37.516;2023-08-07T12:21:06;8.57;;;1.63;;
74291;SDS011;62687;55.738;37.516;2023-08-07T12:23:50;6.82;;;2.03;;
74291;SDS011;62687;55.738;37.516;2023-08-07T12:26:35;6.32;;;1.98;;
74291;SDS011;62687;55.738;37.516;2023-08-07T12:29:20;9.18;;;2.25;;
74291;SDS011;62687;55.738;37.516;2023-08-07T12:32:04;7.68;;;1.85;;
74291;SDS011;62687;55.738;37.516;2023-08-07T12:34:49;9.30;;;2.13;;
74291;SDS011;62687;55.738;37.516;2023-08-07T12:37:34;8.23;;;1.80;;
74291;SDS011;62687;55.738;37.516;2023-08-07T12:40:18;11.50;;;1.88;;
74291;SDS011;62687;55.738;37.516;2023-08-07T12:43:04;6.05;;;2.10;;
74291;SDS011;62687;55.738;37.516;2023-08-07T12:48:32;5.35;;;1.73;;
74291;SDS011;62687;55.738;37.516;2023-08-07T12:51:16;12.05;;;1.73;;
74291;SDS011;62687;55.738;37.516;2023-08-07T12:54:00;8.90;;;1.92;;
74291;SDS011;62687;55.738;37.516;2023-08-07T12:56:44;9.57;;;2.20;;
74291;SDS011;62687;55.738;37.516;2023-08-07T13:02:12;12.07;;;1.73;;
74291;SDS011;62687;55.738;37.516;2023-08-07T13:04:56;7.63;;;2.03;;
74291;SDS011;62687;55.738;37.516;2023-08-07T13:07:41;5.50;;;2.05;;
74291;SDS011;62687;55.738;37.516;2023-08-07T13:13:11;10.82;;;2.53;;
74291;SDS011;62687;55.738;37.516;2023-08-07T13:15:55;9.18;;;1.95;;
74291;SDS011;62687;55.738;37.516;2023-08-07T13:18:39;4.72;;;1.55;;
74291;SDS011;62687;55.738;37.516;2023-08-07T13:24:07;9.20;;;1.90;;
74291;SDS011;62687;55.738;37.516;2023-08-07T13:29:35;8.13;;;2.15;;
74291;SDS011;62687;55.738;37.516;2023-08-07T13:32:19;11.77;;;2.17;;
74291;SDS011;62687;55.738;37.516;2023-08-07T13:35:04;9.25;;;2.03;;
74291;SDS011;62687;55.738;37.516;2023-08-07T13:37:48;4.88;;;1.90;;
74291;SDS011;62687;55.738;37.516;2023-08-07T13:40:32;8.27;;;2.10;;
74291;SDS011;62687;55.738;37.516;2023-08-07T13:43:17;6.50;;;1.98;;
74291;SDS011;62687;55.738;37.516;2023-08-07T13:46:01;8.48;;;2.03;;
74291;SDS011;62687;55.738;37.516;2023-08-07T13:48:45;3.67;;;1.65;;
74291;SDS011;62687;55.738;37.516;2023-08-07T13:51:29;5.47;;;1.60;;
74291;SDS011;62687;55.738;37.516;2023-08-07T13:54:13;7.43;;;1.90;;
74291;SDS011;62687;55.738;37.516;2023-08-07T13:56:57;6.22;;;2.10;;
74291;SDS011;62687;55.738;37.516;2023-08-07T13:59:41;6.82;;;1.70;;
74291;SDS011;62687;55.738;37.516;2023-08-07T14:02:25;10.50;;;2.25;;
74291;SDS011;62687;55.738;37.516;2023-08-07T14:07:53;5.93;;;1.75;;
74291;SDS011;62687;55.738;37.516;2023-08-07T14:10:37;8.45;;;1.83;;
74291;SDS011;62687;55.738;37.516;2023-08-07T14:13:24;10.82;;;2.13;;
74291;SDS011;62687;55.738;37.516;2023-08-07T14:16:08;6.72;;;2.25;;
74291;SDS011;62687;55.738;37.516;2023-08-07T14:18:52;7.55;;;1.92;;
74291;SDS011;62687;55.738;37.516;2023-08-07T14:21:36;10.18;;;1.90;;
74291;SDS011;62687;55.738;37.516;2023-08-07T14:24:20;11.98;;;2.30;;
74291;SDS011;62687;55.738;37.516;2023-08-07T14:27:04;11.60;;;1.88;;
74291;SDS011;62687;55.738;37.516;2023-08-07T14:29:48;6.70;;;1.83;;
74291;SDS011;62687;55.738;37.516;2023-08-07T14:32:32;6.40;;;2.10;;
74291;SDS011;62687;55.738;37.516;2023-08-07T14:38:00;8.18;;;2.10;;
74291;SDS011;62687;55.738;37.516;2023-08-07T14:40:44;5.75;;;1.73;;
74291;SDS011;62687;55.738;37.516;2023-08-07T14:43:29;10.02;;;1.85;;
74291;SDS011;62687;55.738;37.516;2023-08-07T14:46:13;6.22;;;1.90;;
74291;SDS011;62687;55.738;37.516;2023-08-07T14:48:57;6.60;;;1.73;;
74291;SDS011;62687;55.738;37.516;2023-08-07T14:51:41;4.22;;;2.00;;
74291;SDS011;62687;55.738;37.516;2023-08-07T14:54:25;7.68;;;1.90;;
74291;SDS011;62687;55.738;37.516;2023-08-07T14:57:09;16.23;;;1.92;;
74291;SDS011;62687;55.738;37.516;2023-08-07T14:59:53;6.35;;;1.90;;
74291;SDS011;62687;55.738;37.516;2023-08-07T15:02:37;8.85;;;2.10;;
74291;SDS011;62687;55.738;37.516;2023-08-07T15:05:23;11.48;;;2.10;;
74291;SDS011;62687;55.738;37.516;2023-08-07T15:08:07;7.10;;;1.85;;
74291;SDS011;62687;55.738;37.516;2023-08-07T15:10:52;7.03;;;2.00;;
74291;SDS011;62687;55.738;37.516;2023-08-07T15:13:36;13.45;;;2.80;;
74291;SDS011;62687;55.738;37.516;2023-08-07T15:16:20;4.47;;;2.05;;
74291;SDS011;62687;55.738;37.516;2023-08-07T15:19:04;8.70;;;2.10;;
74291;SDS011;62687;55.738;37.516;2023-08-07T15:21:50;12.20;;;2.03;;
74291;SDS011;62687;55.738;37.516;2023-08-07T15:24:34;13.43;;;2.30;;
74291;SDS011;62687;55.738;37.516;2023-08-07T15:27:18;8.43;;;1.80;;
74291;SDS011;62687;55.738;37.516;2023-08-07T15:32:46;7.20;;;1.73;;
74291;SDS011;62687;55.738;37.516;2023-08-07T15:35:30;8.77;;;1.90;;
74291;SDS011;62687;55.738;37.516;2023-08-07T15:38:15;5.45;;;1.90;;
74291;SDS011;62687;55.738;37.516;2023-08-07T15:40:59;6.85;;;1.83;;
74291;SDS011;62687;55.738;37.516;2023-08-07T15:43:43;8.10;;;2.10;;
74291;SDS011;62687;55.738;37.516;2023-08-07T15:49:11;5.22;;;2.30;;
74291;SDS011;62687;55.738;37.516;2023-08-07T15:54:39;7.53;;;1.80;;
74291;SDS011;62687;55.738;37.516;2023-08-07T15:57:22;6.50;;;2.10;;
74291;SDS011;62687;55.738;37.516;2023-08-07T16:00:08;8.32;;;2.00;;
74291;SDS011;62687;55.738;37.516;2023-08-07T16:02:54;6.22;;;1.65;;
74291;SDS011;62687;55.738;37.516;2023-08-07T16:08:22;10.30;;;1.98;;
74291;SDS011;62687;55.738;37.516;2023-08-07T16:13:50;6.22;;;2.20;;
74291;SDS011;62687;55.738;37.516;2023-08-07T16:16:35;11.90;;;1.80;;
74291;SDS011;62687;55.738;37.516;2023-08-07T16:19:21;6.68;;;1.80;;
74291;SDS011;62687;55.738;37.516;2023-08-07T16:22:05;5.50;;;2.28;;
74291;SDS011;62687;55.738;37.516;2023-08-07T16:27:33;7.18;;;1.65;;
74291;SDS011;62687;55.738;37.516;2023-08-07T16:33:01;5.47;;;1.42;;
74291;SDS011;62687;55.738;37.516;2023-08-07T16:35:45;4.88;;;1.65;;
74291;SDS011;62687;55.738;37.516;2023-08-07T16:38:29;4.47;;;1.70;;
74291;SDS011;62687;55.738;37.516;2023-08-07T16:41:13;8.60;;;2.08;;
74291;SDS011;62687;55.738;37.516;2023-08-07T16:43:57;8.50;;;1.90;;
74291;SDS011;62687;55.738;37.516;2023-08-07T16:46:41;8.40;;;2.00;;
74291;SDS011;62687;55.738;37.516;2023-08-07T16:49:25;6.38;;;1.75;;
74291;SDS011;62687;55.738;37.516;2023-08-07T16:52:09;3.88;;;1.83;;
74291;SDS011;62687;55.738;37.516;2023-08-07T16:54:53;7.13;;;3.55;;
74291;SDS011;62687;55.738;37.516;2023-08-07T16:57:38;16.17;;;3.00;;
74291;SDS011;62687;55.738;37.516;2023-08-07T17:00:22;3.25;;;2.28;;
74291;SDS011;62687;55.738;37.516;2023-08-07T17:03:06;8.90;;;2.75;;
74291;SDS011;62687;55.738;37.516;2023-08-07T17:05:50;10.90;;;3.08;;
74291;SDS011;62687;55.738;37.516;2023-08-07T17:08:35;5.20;;;2.10;;
74291;SDS011;62687;55.738;37.516;2023-08-07T17:11:19;7.30;;;2.13;;
74291;SDS011;62687;55.738;37.516;2023-08-07T17:14:02;8.43;;;2.58;;
74291;SDS011;62687;55.738;37.516;2023-08-07T17:16:47;4.40;;;2.22;;
74291;SDS011;62687;55.738;37.516;2023-08-07T17:19:31;12.95;;;2.63;;
74291;SDS011;62687;55.738;37.516;2023-08-07T17:22:15;8.52;;;2.25;;
74291;SDS011;62687;55.738;37.516;2023-08-07T17:24:59;6.88;;;2.33;;